Time;durP1;ratioP1;P1;durP2;ratioP2;P2;SDS_P1;SDS_P2;PMS_P1;PMS_P2;Temp;Humidity;BMP_temperature;BMP_pressure;BME280_temperature;BME280_humidity;BME280_pressure;Samples;Min_cycle;Max_cycle;Signal;HPM_P1;HPM_P2
2023/03/27 00:02:00;;;;;;;0.10;0.10;;;13.50;96.30;;;;;;5069474;28;20016;-78
2023/03/27 00:04:27;;;;;;;0.10;0.10;;;13.50;95.40;;;;;;5069868;28;20028;-78
2023/03/27 00:06:53;;;;;;;0.10;0.10;;;13.50;95.00;;;;;;5069715;28;20020;-78
2023/03/27 00:09:20;;;;;;;0.10;0.10;;;13.50;95.30;;;;;;5066507;28;20020;-78
2023/03/27 00:11:46;;;;;;;0.10;0.10;;;13.50;94.80;;;;;;5062457;28;20047;-78
2023/03/27 00:14:14;;;;;;;0.10;0.10;;;13.40;94.60;;;;;;5063582;28;20462;-77
2023/03/27 00:16:40;;;;;;;0.10;0.10;;;13.20;93.40;;;;;;5063135;28;20587;-78
2023/03/27 00:19:06;;;;;;;0.13;0.13;;;13.50;93.70;;;;;;5059879;28;20311;-78
2023/03/27 00:21:33;;;;;;;0.30;0.30;;;13.40;94.30;;;;;;5059386;28;20129;-79
2023/03/27 00:23:59;;;;;;;0.10;0.10;;;15.30;94.80;;;;;;5064117;28;20067;-78
2023/03/27 00:26:25;;;;;;;0.10;0.10;;;13.40;94.60;;;;;;5061955;28;20029;-79
2023/03/27 00:28:54;;;;;;;3.05;2.85;;;13.40;94.00;;;;;;5060676;28;20033;-79
2023/03/27 00:31:20;;;;;;;0.20;0.20;;;13.40;94.10;;;;;;5060597;28;20340;-78
2023/03/27 00:33:46;;;;;;;0.10;0.10;;;13.80;94.50;;;;;;5061103;28;20431;-80
2023/03/27 00:36:12;;;;;;;0.10;0.10;;;13.30;95.00;;;;;;5061184;28;20502;-78
2023/03/27 00:38:43;;;;;;;0.17;0.17;;;13.30;94.80;;;;;;5061071;28;20503;-79
2023/03/27 00:41:09;;;;;;;0.10;0.10;;;13.30;94.60;;;;;;5059343;28;20024;-79
2023/03/27 00:43:35;;;;;;;0.10;0.10;;;13.30;94.50;;;;;;5058446;28;20252;-79
2023/03/27 00:46:14;;;;;;;0.63;0.63;;;13.40;93.80;;;;;;5059509;28;20067;-78
2023/03/27 00:48:41;;;;;;;0.10;0.10;;;13.40;94.20;;;;;;5058799;28;20062;-79
2023/03/27 00:51:10;;;;;;;0.20;0.20;;;13.40;94.00;;;;;;5057653;28;20320;-80
2023/03/27 00:53:36;;;;;;;0.10;0.10;;;13.40;93.70;;;;;;5058443;28;20445;-78
2023/03/27 00:56:04;;;;;;;0.10;0.10;;;13.30;94.30;;;;;;5059406;28;20035;-80
2023/03/27 00:58:41;;;;;;;0.10;0.10;;;13.40;93.40;;;;;;5058983;28;20112;-80
2023/03/27 01:01:15;;;;;;;0.10;0.10;;;13.40;93.40;;;;;;5058987;28;20299;-78
2023/03/27 01:03:43;;;;;;;0.20;0.20;;;13.50;92.10;;;;;;5060981;28;20024;-78
2023/03/27 01:06:12;;;;;;;0.20;0.20;;;13.70;92.40;;;;;;5061518;28;20027;-77
2023/03/27 01:08:42;;;;;;;0.17;0.17;;;13.50;92.20;;;;;;5061221;28;20617;-78
2023/03/27 01:11:29;;;;;;;0.10;0.10;;;13.60;91.50;;;;;;5062702;28;20398;-79
2023/03/27 01:14:20;;;;;;;0.10;0.10;;;13.60;91.30;;;;;;5060459;28;20020;-78
2023/03/27 01:17:17;;;;;;;0.10;0.10;;;13.60;92.10;;;;;;5060941;28;20029;-77
2023/03/27 01:20:20;;;;;;;0.95;0.95;;;13.60;91.60;;;;;;5058839;28;20035;-79
2023/03/27 01:23:11;;;;;;;0.10;0.10;;;13.60;92.80;;;;;;5059568;28;20033;-78
2023/03/27 01:25:58;;;;;;;0.10;0.10;;;13.50;93.90;;;;;;5059669;28;20017;-80
2023/03/27 01:28:53;;;;;;;0.10;0.10;;;15.60;94.80;;;;;;5059288;28;20154;-79
2023/03/27 01:31:56;;;;;;;0.10;0.10;;;13.50;94.90;;;;;;5043824;28;20522;-79
2023/03/27 01:34:53;;;;;;;0.17;0.17;;;13.30;96.00;;;;;;5059442;28;20024;-79
2023/03/27 01:37:42;;;;;;;0.20;0.20;;;13.30;95.90;;;;;;5061217;28;20029;-78
2023/03/27 01:40:24;;;;;;;0.10;0.10;;;13.30;96.00;;;;;;5061199;28;20043;-78
2023/03/27 01:43:11;;;;;;;0.10;0.10;;;13.30;97.40;;;;;;5062636;28;20024;-79
2023/03/27 01:46:17;;;;;;;0.10;0.10;;;13.40;97.80;;;;;;5059552;28;20183;-78
2023/03/27 01:48:56;;;;;;;0.10;0.10;;;13.40;97.60;;;;;;4960355;28;20097;-79
2023/03/27 01:51:29;;;;;;;0.10;0.10;;;13.30;97.00;;;;;;4976653;28;20097;-78
2023/03/27 01:54:06;;;;;;;1.08;1.08;;;13.30;98.00;;;;;;4960178;28;20022;-79
2023/03/27 01:56:38;;;;;;;0.10;0.10;;;13.20;98.40;;;;;;4960122;28;20053;-82
2023/03/27 01:59:12;;;;;;;0.17;0.17;;;13.20;99.70;;;;;;4960394;28;20310;-79
2023/03/27 02:01:43;;;;;;;0.10;0.10;;;13.10;99.50;;;;;;4959711;28;20741;-79
2023/03/27 02:04:15;;;;;;;0.10;0.10;;;13.10;99.90;;;;;;4964005;28;20034;-78
2023/03/27 02:06:46;;;;;;;0.10;0.10;;;13.00;99.90;;;;;;4960617;28;20018;-80
2023/03/27 02:09:23;;;;;;;0.10;0.10;;;13.00;99.90;;;;;;4959496;28;20050;-79
2023/03/27 02:11:55;;;;;;;0.10;0.10;;;13.00;99.90;;;;;;4976500;28;20038;-79
2023/03/27 02:14:27;;;;;;;0.10;0.10;;;13.00;99.90;;;;;;4977381;28;20320;-78
2023/03/27 02:16:57;;;;;;;0.10;0.10;;;13.00;99.90;;;;;;4981394;28;20185;-77
2023/03/27 02:19:33;;;;;;;0.10;0.10;;;13.00;99.90;;;;;;4978684;28;20395;-79
2023/03/27 02:22:00;;;;;;;0.10;0.10;;;13.00;99.90;;;;;;4977423;28;20036;-78
2023/03/27 02:24:26;;;;;;;0.10;0.10;;;13.00;99.90;;;;;;5058846;28;20100;-79
2023/03/27 02:27:03;;;;;;;0.10;0.10;;;13.00;99.90;;;;;;5060162;28;20131;-79
2023/03/27 02:29:59;;;;;;;0.10;0.10;;;12.90;99.90;;;;;;5063291;28;20418;-79
2023/03/27 02:32:36;;;;;;;0.10;0.10;;;9.90;99.90;;;;;;5062417;28;20036;-79
2023/03/27 02:35:31;;;;;;;0.10;0.10;;;12.80;99.90;;;;;;5066311;28;20038;-79
2023/03/27 02:38:08;;;;;;;0.63;0.63;;;12.70;99.90;;;;;;5067426;28;20020;-78
2023/03/27 02:40:55;;;;;;;0.13;0.13;;;15.20;99.90;;;;;;5070885;28;20035;-78
2023/03/27 02:43:38;;;;;;;0.10;0.10;;;15.50;99.90;;;;;;5072578;28;20048;-78
2023/03/27 02:46:37;;;;;;;0.05;0.05;;;12.50;99.90;;;;;;5072588;28;20055;-78
2023/03/27 02:49:08;;;;;;;0.10;0.10;;;12.10;99.90;;;;;;5070829;28;20020;-78
2023/03/27 02:51:43;;;;;;;0.10;0.10;;;11.80;99.90;;;;;;5068193;28;20128;-78
2023/03/27 02:54:21;;;;;;;0.10;0.10;;;11.90;99.90;;;;;;5067115;28;20025;-78
2023/03/27 02:56:55;;;;;;;0.05;0.05;;;11.70;99.90;;;;;;5067560;28;20232;-78
2023/03/27 02:59:37;;;;;;;0.10;0.10;;;11.10;99.90;;;;;;5067883;28;20048;-79
2023/03/27 03:02:08;;;;;;;0.00;0.00;;;11.10;99.90;;;;;;5066457;28;20220;-77
2023/03/27 03:04:46;;;;;;;0.00;0.00;;;11.00;99.90;;;;;;5063562;28;20024;-78
2023/03/27 03:07:13;;;;;;;0.10;0.10;;;10.70;99.90;;;;;;5064699;28;20013;-78
2023/03/27 03:09:43;;;;;;;0.00;0.00;;;10.70;99.90;;;;;;5064323;28;20031;-79
2023/03/27 03:12:09;;;;;;;0.00;0.00;;;10.60;99.90;;;;;;5062966;28;20059;-79
2023/03/27 03:14:38;;;;;;;0.00;0.00;;;10.50;99.90;;;;;;5064440;28;20249;-79
2023/03/27 03:17:04;;;;;;;0.00;0.00;;;10.50;99.90;;;;;;5061996;28;20031;-78
2023/03/27 03:19:31;;;;;;;0.00;0.00;;;10.40;99.90;;;;;;5063716;28;20074;-79
2023/03/27 03:21:57;;;;;;;0.00;0.00;;;11.80;99.90;;;;;;5067775;28;20100;-80
2023/03/27 03:24:22;;;;;;;0.00;0.00;;;10.40;99.90;;;;;;5067886;28;20032;-80
2023/03/27 03:26:49;;;;;;;0.00;0.00;;;10.40;99.90;;;;;;5068525;28;20145;-79
2023/03/27 03:29:16;;;;;;;0.00;0.00;;;10.20;99.90;;;;;;5069421;28;20025;-79
2023/03/27 03:31:43;;;;;;;0.00;0.00;;;10.00;99.90;;;;;;5069338;28;20036;-77
2023/03/27 03:34:10;;;;;;;1.17;1.17;;;10.20;99.90;;;;;;5067674;28;20194;-79
2023/03/27 03:36:36;;;;;;;0.00;0.00;;;10.00;99.90;;;;;;5062908;28;20052;-78
2023/03/27 03:39:03;;;;;;;0.00;0.00;;;10.00;99.90;;;;;;5065256;28;20083;-78
2023/03/27 03:41:32;;;;;;;0.00;0.00;;;10.00;99.90;;;;;;5063860;28;20082;-78
2023/03/27 03:43:58;;;;;;;0.00;0.00;;;9.90;99.90;;;;;;5063095;28;20107;-78
2023/03/27 03:46:24;;;;;;;0.00;0.00;;;9.90;99.90;;;;;;5063312;28;20125;-77
2023/03/27 03:48:50;;;;;;;0.08;0.08;;;9.80;99.90;;;;;;5065366;28;20522;-78
2023/03/27 03:51:16;;;;;;;0.00;0.00;;;9.60;99.90;;;;;;5068695;28;20324;-78
2023/03/27 03:53:42;;;;;;;0.00;0.00;;;9.30;99.90;;;;;;5071520;28;20016;-78
2023/03/27 03:56:08;;;;;;;0.00;0.00;;;9.00;99.90;;;;;;5072633;28;20025;-78
2023/03/27 03:58:33;;;;;;;0.00;0.00;;;9.00;99.90;;;;;;5070297;28;20075;-78
2023/03/27 04:01:01;;;;;;;0.00;0.00;;;8.90;99.90;;;;;;5073110;28;20021;-78
2023/03/27 04:03:31;;;;;;;0.00;0.00;;;8.40;99.90;;;;;;5072259;28;20456;-77
2023/03/27 04:05:59;;;;;;;0.00;0.00;;;8.90;99.90;;;;;;5072202;28;20047;-77
2023/03/27 04:08:26;;;;;;;0.00;0.00;;;8.90;99.90;;;;;;5074262;28;20020;-78
2023/03/27 04:10:52;;;;;;;0.00;0.00;;;8.90;99.90;;;;;;5072638;28;20028;-78
2023/03/27 04:13:18;;;;;;;0.00;0.00;;;8.80;99.90;;;;;;5071217;28;20023;-78
2023/03/27 04:15:44;;;;;;;0.00;0.00;;;8.80;99.90;;;;;;5072284;28;20030;-77
2023/03/27 04:18:09;;;;;;;0.00;0.00;;;8.70;99.90;;;;;;5073594;28;20080;-77
2023/03/27 04:20:36;;;;;;;0.05;0.05;;;8.80;99.90;;;;;;5072190;28;20016;-77
2023/03/27 04:23:02;;;;;;;0.00;0.00;;;8.70;99.90;;;;;;5066509;28;20021;-77
2023/03/27 04:25:29;;;;;;;0.05;0.05;;;8.70;99.90;;;;;;5065906;28;20024;-77
2023/03/27 04:27:55;;;;;;;0.00;0.00;;;8.70;99.90;;;;;;5067205;28;20060;-78
2023/03/27 04:30:23;;;;;;;0.10;0.10;;;8.80;99.90;;;;;;5067377;28;20234;-77
2023/03/27 04:32:50;;;;;;;0.03;0.03;;;8.80;99.90;;;;;;5066893;28;20092;-77
2023/03/27 04:35:17;;;;;;;0.00;0.00;;;8.80;99.90;;;;;;5067820;28;20032;-77
2023/03/27 04:37:44;;;;;;;0.00;0.00;;;8.80;99.90;;;;;;5067676;28;20024;-77
2023/03/27 04:40:13;;;;;;;0.00;0.00;;;8.80;99.90;;;;;;5066965;28;20016;-77
2023/03/27 04:42:43;;;;;;;0.00;0.00;;;8.80;99.90;;;;;;5065651;28;20032;-77
2023/03/27 04:45:19;;;;;;;0.00;0.00;;;8.90;99.90;;;;;;5065001;28;20021;-77
2023/03/27 04:47:46;;;;;;;0.10;0.10;;;8.80;99.90;;;;;;5066382;28;20029;-77
2023/03/27 04:50:13;;;;;;;0.10;0.10;;;8.90;99.90;;;;;;5066186;28;20080;-77
2023/03/27 04:52:38;;;;;;;0.00;0.00;;;8.90;99.90;;;;;;5073392;28;20375;-77
2023/03/27 04:55:05;;;;;;;0.00;0.00;;;9.00;99.90;;;;;;5070254;28;20025;-77
2023/03/27 04:57:32;;;;;;;0.00;0.00;;;8.90;99.90;;;;;;5072495;28;20033;-77
2023/03/27 05:00:00;;;;;;;0.00;0.00;;;9.00;99.90;;;;;;5070223;28;20024;-77
2023/03/27 05:02:27;;;;;;;0.00;0.00;;;8.90;99.90;;;;;;5073445;28;20294;-78
2023/03/27 05:04:57;;;;;;;0.00;0.00;;;8.90;99.90;;;;;;5074028;28;20020;-77
2023/03/27 05:07:27;;;;;;;0.00;0.00;;;8.80;99.90;;;;;;5072676;28;20033;-77
2023/03/27 05:09:54;;;;;;;0.00;0.00;;;;;;;;;;5053812;28;20025;-77
2023/03/27 05:12:25;;;;;;;0.00;0.00;;;9.00;99.90;;;;;;5070814;28;20313;-78
2023/03/27 05:15:04;;;;;;;0.03;0.03;;;9.00;99.90;;;;;;5053169;28;20032;-78
2023/03/27 05:17:31;;;;;;;0.00;0.00;;;9.00;99.90;;;;;;5077299;28;20024;-78
2023/03/27 05:19:58;;;;;;;0.00;0.00;;;9.00;99.90;;;;;;5080334;28;20090;-78
2023/03/27 05:22:26;;;;;;;0.10;0.10;;;9.10;99.90;;;;;;5075162;28;20047;-78
2023/03/27 05:24:53;;;;;;;0.00;0.00;;;;;;;;;;5073327;28;20317;-78
2023/03/27 05:27:19;;;;;;;0.00;0.00;;;10.10;99.90;;;;;;5071143;28;20036;-78
2023/03/27 05:29:45;;;;;;;0.00;0.00;;;9.20;99.90;;;;;;5077085;28;20064;-77
2023/03/27 05:32:17;;;;;;;0.00;0.00;;;9.20;99.90;;;;;;5077565;28;20029;-78
2023/03/27 05:34:49;;;;;;;0.00;0.00;;;9.20;99.90;;;;;;5070238;28;20029;-77
2023/03/27 05:37:18;;;;;;;0.00;0.00;;;9.30;99.90;;;;;;5053772;28;20066;-77
2023/03/27 05:39:48;;;;;;;0.03;0.03;;;9.30;99.90;;;;;;5069346;28;20349;-79
2023/03/27 05:42:15;;;;;;;0.00;0.00;;;9.30;99.90;;;;;;5066774;28;20031;-77
2023/03/27 05:44:44;;;;;;;0.05;0.05;;;9.40;99.90;;;;;;5071491;28;20016;-77
2023/03/27 05:47:14;;;;;;;0.00;0.00;;;9.30;99.90;;;;;;5071512;28;20048;-77
2023/03/27 05:49:40;;;;;;;0.00;0.00;;;9.50;99.90;;;;;;5069736;28;20029;-77
2023/03/27 05:52:07;;;;;;;0.00;0.00;;;9.50;99.90;;;;;;5072127;28;20035;-77
2023/03/27 05:54:33;;;;;;;0.00;0.00;;;9.40;99.90;;;;;;5069835;28;20020;-77
2023/03/27 05:56:59;;;;;;;0.10;0.10;;;9.40;99.90;;;;;;5071619;28;20198;-77
2023/03/27 05:59:25;;;;;;;0.00;0.00;;;9.40;99.90;;;;;;5073052;28;20616;-79
2023/03/27 06:01:53;;;;;;;0.00;0.00;;;9.50;99.90;;;;;;5074941;28;20032;-78
2023/03/27 06:04:22;;;;;;;0.00;0.00;;;7.00;99.90;;;;;;5073557;28;20105;-78
2023/03/27 06:06:48;;;;;;;0.00;0.00;;;9.60;99.90;;;;;;5071586;28;20166;-77
2023/03/27 06:09:14;;;;;;;0.00;0.00;;;9.60;99.90;;;;;;5071148;28;20490;-77
2023/03/27 06:11:40;;;;;;;0.10;0.10;;;9.70;99.90;;;;;;5065885;28;20033;-77
2023/03/27 06:14:06;;;;;;;0.10;0.10;;;9.80;99.90;;;;;;5068503;28;20121;-77
2023/03/27 06:16:32;;;;;;;0.00;0.00;;;9.90;99.90;;;;;;5071161;28;20229;-77
2023/03/27 06:18:58;;;;;;;0.00;0.00;;;9.90;99.90;;;;;;5065342;28;20425;-77
2023/03/27 06:21:24;;;;;;;0.00;0.00;;;10.00;99.90;;;;;;5066305;28;20020;-77
2023/03/27 06:23:50;;;;;;;0.43;0.43;;;10.00;99.90;;;;;;5064535;28;20054;-77
2023/03/27 06:26:17;;;;;;;0.08;0.08;;;10.20;99.90;;;;;;5073767;28;20653;-77
2023/03/27 06:28:43;;;;;;;0.10;0.10;;;9.90;99.90;;;;;;5070466;28;20024;-77
2023/03/27 06:31:10;;;;;;;0.00;0.00;;;10.30;99.90;;;;;;5068159;28;20032;-77
2023/03/27 06:33:42;;;;;;;0.00;0.00;;;10.30;99.90;;;;;;5067192;28;20036;-78
2023/03/27 06:36:09;;;;;;;0.55;0.55;;;10.40;99.90;;;;;;5063589;28;20399;-77
2023/03/27 06:38:36;;;;;;;0.00;0.00;;;10.50;99.90;;;;;;5066127;28;20029;-77
2023/03/27 06:41:03;;;;;;;0.10;0.10;;;10.30;99.90;;;;;;5067596;28;20021;-77
2023/03/27 06:43:29;;;;;;;0.80;0.80;;;10.30;99.90;;;;;;5067929;28;20020;-77
2023/03/27 06:45:55;;;;;;;0.10;0.10;;;10.30;99.90;;;;;;5063292;28;20079;-77
2023/03/27 06:48:22;;;;;;;0.10;0.10;;;10.40;99.90;;;;;;5066130;28;20217;-77
2023/03/27 06:50:50;;;;;;;0.63;0.63;;;10.40;99.90;;;;;;5065694;28;20087;-77
2023/03/27 06:53:17;;;;;;;0.10;0.10;;;10.60;99.90;;;;;;5063814;28;20114;-78
2023/03/27 06:55:44;;;;;;;0.10;0.10;;;10.60;99.90;;;;;;5066142;28;20021;-78
2023/03/27 06:58:15;;;;;;;0.00;0.00;;;10.60;99.90;;;;;;5066825;28;20035;-77
2023/03/27 07:00:41;;;;;;;0.10;0.10;;;10.70;99.90;;;;;;5067587;28;20265;-78
2023/03/27 07:03:08;;;;;;;0.10;0.10;;;10.60;99.90;;;;;;5067621;28;20027;-77
2023/03/27 07:05:38;;;;;;;0.10;0.10;;;10.70;99.90;;;;;;5065772;28;20120;-78
2023/03/27 07:08:12;;;;;;;0.10;0.10;;;10.80;99.90;;;;;;5064909;28;20036;-78
2023/03/27 07:10:39;;;;;;;0.08;0.08;;;10.90;99.90;;;;;;5067175;28;20029;-78
2023/03/27 07:13:05;;;;;;;0.10;0.10;;;10.00;99.90;;;;;;5066569;28;20098;-77
2023/03/27 07:15:31;;;;;;;0.10;0.10;;;10.80;99.90;;;;;;5068553;28;20020;-80
2023/03/27 07:18:01;;;;;;;0.10;0.10;;;11.80;99.90;;;;;;5065877;28;20105;-79
2023/03/27 07:20:30;;;;;;;0.10;0.10;;;11.10;99.90;;;;;;5066346;28;20115;-79
2023/03/27 07:23:00;;;;;;;0.10;0.10;;;11.40;99.90;;;;;;5071279;28;20012;-83
2023/03/27 07:25:36;;;;;;;0.03;0.03;;;12.20;99.90;;;;;;5063212;28;20012;-79
2023/03/27 07:28:09;;;;;;;0.10;0.10;;;13.00;99.90;;;;;;5061657;28;20028;-85
2023/03/27 07:30:48;;;;;;;0.10;0.10;;;13.30;99.90;;;;;;5062575;28;20024;-85
2023/03/27 07:33:16;;;;;;;0.10;0.10;;;12.30;99.90;;;;;;5061429;28;20032;-88
2023/03/27 07:35:47;;;;;;;0.10;0.10;;;13.10;99.90;;;;;;5063309;28;20013;-86
2023/03/27 07:38:17;;;;;;;0.10;0.10;;;13.20;99.90;;;;;;5061116;28;20029;-81
2023/03/27 07:40:45;;;;;;;0.50;0.50;;;13.20;99.90;;;;;;5060749;28;20025;-79
2023/03/27 07:43:11;;;;;;;0.10;0.10;;;13.90;99.90;;;;;;5063126;28;20017;-78
2023/03/27 07:45:37;;;;;;;0.10;0.10;;;12.60;99.90;;;;;;5066379;28;20071;-80
2023/03/27 07:48:08;;;;;;;0.10;0.10;;;11.30;99.90;;;;;;5063224;28;20064;-79
2023/03/27 07:50:41;;;;;;;0.10;0.10;;;12.40;99.90;;;;;;5063526;28;20595;-78
2023/03/27 07:53:06;;;;;;;0.10;0.10;;;14.40;99.90;;;;;;5064908;28;20023;-78
2023/03/27 07:55:36;;;;;;;0.17;0.17;;;12.40;99.90;;;;;;5065091;28;20021;-78
2023/03/27 07:58:05;;;;;;;0.13;0.13;;;12.30;99.90;;;;;;5064973;28;20360;-79
2023/03/27 08:00:32;;;;;;;0.10;0.10;;;12.30;99.90;;;;;;5065455;28;20346;-78
2023/03/27 08:03:13;;;;;;;0.10;0.10;;;12.20;99.90;;;;;;5066106;28;20079;-78
2023/03/27 08:05:42;;;;;;;0.10;0.10;;;12.20;99.90;;;;;;5064712;28;20103;-81
2023/03/27 08:08:11;;;;;;;0.10;0.10;;;12.20;99.90;;;;;;5063626;28;20031;-78
2023/03/27 08:10:40;;;;;;;0.00;0.00;;;12.20;99.90;;;;;;5062107;28;20092;-78
2023/03/27 08:13:07;;;;;;;0.10;0.10;;;12.30;97.50;;;;;;5066615;28;20051;-78
2023/03/27 08:15:38;;;;;;;0.03;0.03;;;12.40;93.80;;;;;;5069197;28;20765;-78
2023/03/27 08:18:04;;;;;;;0.10;0.10;;;12.50;95.00;;;;;;5066729;28;20023;-78
2023/03/27 08:20:30;;;;;;;0.08;0.08;;;12.50;94.00;;;;;;5067696;28;20155;-78
2023/03/27 08:22:59;;;;;;;0.10;0.10;;;12.50;95.20;;;;;;5069148;28;20020;-78
2023/03/27 08:25:27;;;;;;;0.10;0.10;;;16.40;99.10;;;;;;5068863;28;20028;-78
2023/03/27 08:27:53;;;;;;;0.10;0.10;;;12.60;98.10;;;;;;5068260;28;20019;-78
2023/03/27 08:30:22;;;;;;;0.10;0.10;;;12.80;96.40;;;;;;5067713;28;20028;-78
2023/03/27 08:32:48;;;;;;;0.10;0.10;;;13.00;95.50;;;;;;5065186;28;20055;-78
2023/03/27 08:35:16;;;;;;;0.10;0.10;;;13.00;94.10;;;;;;5064199;28;20526;-77
2023/03/27 08:37:42;;;;;;;0.10;0.10;;;13.00;91.60;;;;;;5065901;28;20645;-78
2023/03/27 08:40:25;;;;;;;0.10;0.10;;;12.90;92.10;;;;;;5063278;28;20021;-78
2023/03/27 08:42:55;;;;;;;0.08;0.08;;;12.90;91.80;;;;;;5064633;28;20046;-77
2023/03/27 08:45:28;;;;;;;0.10;0.10;;;12.90;91.80;;;;;;5062215;28;20051;-77
2023/03/27 08:48:10;;;;;;;0.10;0.10;;;13.00;91.50;;;;;;5061704;28;20024;-78
2023/03/27 08:50:47;;;;;;;0.10;0.10;;;13.00;89.70;;;;;;5062130;28;20637;-79
2023/03/27 08:53:31;;;;;;;0.10;0.10;;;13.10;93.10;;;;;;5062204;28;20028;-77
2023/03/27 08:56:01;;;;;;;0.10;0.10;;;13.20;86.70;;;;;;5065944;28;20510;-78
2023/03/27 08:58:29;;;;;;;0.10;0.10;;;13.10;88.80;;;;;;5065480;28;20012;-81
2023/03/27 09:01:14;;;;;;;0.10;0.10;;;13.20;90.30;;;;;;5063753;28;20099;-83
2023/03/27 09:03:43;;;;;;;0.20;0.20;;;13.20;91.00;;;;;;5058918;28;20016;-80
2023/03/27 09:06:15;;;;;;;0.20;0.20;;;13.30;91.90;;;;;;5059254;28;20673;-78
2023/03/27 09:08:50;;;;;;;0.20;0.20;;;13.40;92.40;;;;;;5060379;28;20108;-79
2023/03/27 09:12:06;;;;;;;0.17;0.17;;;12.20;92.50;;;;;;5060781;28;20090;-87
2023/03/27 09:14:37;;;;;;;0.10;0.10;;;13.30;91.80;;;;;;4978201;28;20053;-79
2023/03/27 09:17:17;;;;;;;0.10;0.10;;;11.70;92.10;;;;;;4977488;28;20301;-80
2023/03/27 09:20:05;;;;;;;0.10;0.10;;;13.00;89.50;;;;;;4977029;28;20041;-82
2023/03/27 09:22:39;;;;;;;0.10;0.10;;;13.00;93.10;;;;;;4977023;28;20552;-78
2023/03/27 09:25:27;;;;;;;0.10;0.10;;;10.20;91.80;;;;;;4976657;28;20065;-78
2023/03/27 09:27:53;;;;;;;0.10;0.10;;;13.00;93.00;;;;;;4978119;28;20563;-81
2023/03/27 09:30:31;;;;;;;0.10;0.10;;;13.00;93.90;;;;;;4962109;28;20831;-79
2023/03/27 09:33:04;;;;;;;0.10;0.10;;;12.90;95.60;;;;;;4980184;28;20042;-78
2023/03/27 09:35:31;;;;;;;0.10;0.10;;;12.70;99.90;;;;;;4967681;28;20029;-78
2023/03/27 09:38:05;;;;;;;0.10;0.10;;;12.10;99.90;;;;;;4984606;28;20030;-78
2023/03/27 09:40:48;;;;;;;0.10;0.10;;;11.70;99.90;;;;;;4967806;28;20570;-78
2023/03/27 09:43:18;;;;;;;0.10;0.10;;;11.20;99.90;;;;;;4971580;28;20057;-78
2023/03/27 09:46:18;;;;;;;0.10;0.10;;;11.50;99.90;;;;;;5084187;27;1461629;-77
2023/03/27 09:48:53;;;;;;;0.00;0.00;;;10.90;99.90;;;;;;5126154;28;20029;-77
2023/03/27 09:51:44;;;;;;;0.00;0.00;;;9.40;99.90;;;;;;5129481;27;20024;-78
2023/03/27 09:54:16;;;;;;;0.10;0.10;;;10.80;99.90;;;;;;5129937;28;20056;-79
2023/03/27 09:56:52;;;;;;;0.10;0.10;;;12.40;99.90;;;;;;5127100;28;20011;-78
2023/03/27 09:59:44;;;;;;;0.00;0.00;;;11.10;99.90;;;;;;5133066;28;20026;-76
2023/03/27 10:02:21;;;;;;;0.00;0.00;;;11.10;99.90;;;;;;5132987;27;20007;-79
2023/03/27 10:05:21;;;;;;;0.10;0.10;;;11.20;99.90;;;;;;5131294;28;20710;-79
2023/03/27 10:07:51;;;;;;;0.00;0.00;;;11.20;99.90;;;;;;5134547;27;20664;-79
2023/03/27 10:10:20;;;;;;;0.10;0.10;;;11.10;99.90;;;;;;5133465;27;20026;-79
2023/03/27 10:13:00;;;;;;;0.10;0.10;;;11.10;99.90;;;;;;5137738;27;20027;-79
2023/03/27 10:15:38;;;;;;;0.10;0.10;;;11.00;99.90;;;;;;5122819;28;20778;-78
2023/03/27 10:18:32;;;;;;;0.10;0.10;;;11.00;99.90;;;;;;5120608;27;20031;-79
2023/03/27 10:21:00;;;;;;;;;;;10.80;99.90;;;;;;5038697;28;20033;-76
2023/03/27 10:23:41;;;;;;;0.10;0.10;;;10.60;99.90;;;;;;5040685;28;19905;-78
2023/03/27 10:26:11;;;;;;;0.10;0.10;;;10.40;99.90;;;;;;5024995;28;20102;-78
2023/03/27 10:28:41;;;;;;;0.10;0.10;;;10.30;99.90;;;;;;5040513;28;20068;-79
2023/03/27 10:31:23;;;;;;;0.00;0.00;;;10.20;99.90;;;;;;5043902;28;20106;-79
2023/03/27 10:33:51;;;;;;;0.00;0.00;;;10.10;99.90;;;;;;5046134;28;20021;-79
2023/03/27 10:36:17;;;;;;;0.10;0.10;;;10.00;99.90;;;;;;5012349;28;20782;-79
2023/03/27 10:38:55;;;;;;;0.00;0.00;;;9.90;99.90;;;;;;5046622;28;20051;-78
2023/03/27 10:41:22;;;;;;;0.00;0.00;;;11.20;99.90;;;;;;5046503;28;20013;-78
2023/03/27 10:43:59;;;;;;;0.00;0.00;;;9.70;99.90;;;;;;5047174;28;20027;-78
2023/03/27 10:46:29;;;;;;;0.10;0.10;;;9.70;99.90;;;;;;5044884;28;20041;-79
2023/03/27 10:49:15;;;;;;;0.10;0.10;;;9.80;99.90;;;;;;5065533;28;20029;-78
2023/03/27 10:52:11;;;;;;;0.10;0.10;;;7.50;99.90;;;;;;5045578;28;20133;-77
2023/03/27 10:55:22;;;;;;;0.00;0.00;;;9.80;99.90;;;;;;5053789;28;20160;-78
2023/03/27 10:57:56;;;;;;;0.00;0.00;;;10.00;99.90;;;;;;4997037;28;20037;-79
2023/03/27 11:00:40;;;;;;;0.10;0.10;;;10.10;99.90;;;;;;5009811;28;20033;-78
2023/03/27 11:03:10;;;;;;;;;;;10.20;99.90;;;;;;5030090;28;20041;-79
2023/03/27 11:05:46;;;;;;;0.10;0.10;;;10.40;99.90;;;;;;5010936;28;19920;-78
2023/03/27 11:09:08;;;;;;;0.00;0.00;;;10.40;99.90;;;;;;5029563;28;20092;-79
2023/03/27 11:11:43;;;;;;;0.08;0.08;;;10.40;99.90;;;;;;4968156;28;20031;-79
2023/03/27 11:14:47;;;;;;;0.10;0.10;;;10.20;99.90;;;;;;4952236;28;20686;-78
2023/03/27 11:17:17;;;;;;;0.10;0.10;;;10.30;99.90;;;;;;4968204;28;20043;-78
2023/03/27 11:19:55;;;;;;;0.10;0.10;;;10.30;99.90;;;;;;4969939;28;20031;-80
2023/03/27 11:22:44;;;;;;;0.10;0.10;;;10.40;99.90;;;;;;4970744;28;20035;-77
2023/03/27 11:25:35;;;;;;;0.10;0.10;;;10.50;99.90;;;;;;4969323;28;20047;-78
2023/03/27 11:28:30;;;;;;;0.10;0.10;;;10.50;99.90;;;;;;4951994;28;20034;-78
2023/03/27 11:31:12;;;;;;;0.10;0.10;;;10.30;99.90;;;;;;4967750;28;20114;-78
2023/03/27 11:34:04;;;;;;;0.10;0.10;;;10.10;99.90;;;;;;4976849;28;20031;-79
2023/03/27 11:36:57;;;;;;;0.10;0.10;;;9.20;99.90;;;;;;5047870;28;20017;-78
2023/03/27 11:39:34;;;;;;;0.00;0.00;;;10.00;99.90;;;;;;5048396;28;20036;-78
2023/03/27 11:42:08;;;;;;;0.10;0.10;;;9.00;99.90;;;;;;5034360;28;20021;-78
2023/03/27 11:44:37;;;;;;;0.00;0.00;;;10.00;99.90;;;;;;5059921;28;20138;-78
2023/03/27 11:47:09;;;;;;;0.08;0.08;;;10.00;99.90;;;;;;5077545;28;20034;-78
2023/03/27 11:49:53;;;;;;;0.10;0.10;;;10.20;99.90;;;;;;5093892;28;20030;-78
2023/03/27 11:52:51;;;;;;;0.10;0.10;;;10.10;99.90;;;;;;5121394;28;20023;-79
2023/03/27 11:55:56;;;;;;;0.10;0.10;;;10.50;99.90;;;;;;5019675;28;20034;-79
2023/03/27 11:59:01;;;;;;;0.10;0.10;;;10.60;99.90;;;;;;5006007;28;20026;-78
2023/03/27 12:01:48;;;;;;;0.00;0.00;;;10.50;99.90;;;;;;5018697;28;20053;-78
2023/03/27 12:05:02;;;;;;;0.10;0.10;;;10.60;99.90;;;;;;5019662;28;20030;-77
2023/03/27 12:07:42;;;;;;;0.00;0.00;;;10.70;99.90;;;;;;4994591;28;20117;-78
2023/03/27 12:10:33;;;;;;;0.10;0.10;;;10.70;99.90;;;;;;5014048;28;20026;-78
2023/03/27 12:13:29;;;;;;;0.10;0.10;;;10.70;99.90;;;;;;5015470;28;20092;-78
2023/03/27 12:16:23;;;;;;;0.10;0.10;;;10.70;99.90;;;;;;5000899;28;20034;-78
2023/03/27 12:19:19;;;;;;;0.03;0.03;;;11.00;99.90;;;;;;5013042;28;20062;-78
2023/03/27 12:22:25;;;;;;;0.05;0.05;;;10.30;99.90;;;;;;4991488;28;20097;-78
2023/03/27 12:25:15;;;;;;;0.10;0.10;;;10.30;99.90;;;;;;5005825;28;20049;-77
2023/03/27 12:28:11;;;;;;;0.03;0.03;;;10.50;99.90;;;;;;5006514;28;20061;-79
2023/03/27 12:30:55;;;;;;;0.10;0.10;;;10.40;99.90;;;;;;4948651;29;20045;-78
2023/03/27 12:33:32;;;;;;;0.10;0.10;;;10.50;99.90;;;;;;5017294;28;20025;-78
2023/03/27 12:36:04;;;;;;;0.10;0.10;;;10.50;99.90;;;;;;5031451;28;20521;-78
2023/03/27 12:38:42;;;;;;;0.00;0.00;;;12.90;99.90;;;;;;5033514;28;20025;-78
2023/03/27 12:41:23;;;;;;;0.00;0.00;;;9.20;99.90;;;;;;5048089;28;20029;-78
2023/03/27 12:44:00;;;;;;;0.10;0.10;;;10.50;99.90;;;;;;5048339;28;20104;-77
2023/03/27 12:46:27;;;;;;;0.10;0.10;;;10.50;99.90;;;;;;5043185;28;20183;-78
2023/03/27 12:49:04;;;;;;;0.10;0.10;;;10.50;99.90;;;;;;5045457;28;20090;-78
2023/03/27 12:52:11;;;;;;;0.00;0.00;;;10.60;99.90;;;;;;5043386;28;20033;-77
2023/03/27 12:54:38;;;;;;;0.10;0.10;;;10.60;99.90;;;;;;4979825;28;20022;-78
2023/03/27 12:57:19;;;;;;;0.10;0.10;;;10.60;99.90;;;;;;4967647;28;20034;-78
2023/03/27 12:59:54;;;;;;;0.10;0.10;;;10.90;99.90;;;;;;4984541;28;20678;-78
2023/03/27 13:02:48;;;;;;;0.00;0.00;;;10.80;99.90;;;;;;4983371;28;20037;-80
2023/03/27 13:05:48;;;;;;;0.10;0.10;;;10.80;99.90;;;;;;4985808;28;20073;-78
2023/03/27 13:08:34;;;;;;;0.10;0.10;;;11.00;99.90;;;;;;5024762;28;20052;-78
2023/03/27 13:11:29;;;;;;;0.10;0.10;;;11.00;99.90;;;;;;5044298;28;20057;-78
2023/03/27 13:14:03;;;;;;;18.25;17.52;;;12.60;99.90;;;;;;5045080;28;20021;-77
2023/03/27 13:16:32;;;;;;;0.10;0.10;;;11.40;99.90;;;;;;5033111;28;20902;-78
2023/03/27 13:19:05;;;;;;;0.05;0.05;;;11.40;99.90;;;;;;5043811;28;20017;-78
2023/03/27 13:22:04;;;;;;;0.20;0.20;;;11.70;99.90;;;;;;5045619;28;20037;-78
2023/03/27 13:24:57;;;;;;;0.10;0.10;;;12.00;99.90;;;;;;5045788;28;20036;-78
2023/03/27 13:27:51;;;;;;;0.10;0.10;;;11.90;99.90;;;;;;5048110;28;20167;-78
2023/03/27 13:30:48;;;;;;;0.10;0.10;;;12.20;99.40;;;;;;5106593;28;20076;-78